Flight Track Log - Related Links

Times and Time Zones

All times are in EDT time to prevent confusion due to time zone crossing. See the N510SR flight status page for this flight to view local times or setup timezone preferences in your user account.

Time Position Orientation Groundspeed Altitude Reporting Facility
EDT Latitude Longitude Course Direction KTS MPH feet Rate Location/Type
Mon 02:24:13 PM 42.3667 -70.9833 79° East 170 196 800  Level KA90
Mon 02:25:38 PM 42.3833 -70.8667 79° East 234 269 5,900 3,569 Climbing KA90
Mon 02:26:46 PM 42.3847 -70.7636 89° East 257 296 9,900 3,069 Climbing Boston Center
Mon 02:27:49 PM 42.3178 -70.7319 161° South 297 342 12,600 2,829 Climbing Boston Center
Mon 02:28:49 PM 42.2883 -70.8569 252° West 338 389 15,700 1,686 Climbing Boston Center
Mon 02:29:50 PM 42.2817 -70.9961 266° West 374 430 16,000 144 Climbing Boston Center
Mon 02:30:54 PM 42.2733 -71.1431 266° West 393 452 16,000  Level Boston Center
Mon 02:31:54 PM 42.2633 -71.2975 265° West 388 447 16,000  Level Boston Center
Mon 02:32:55 PM 42.2539 -71.4406 265° West 385 443 16,000  Level Boston Center
Mon 02:33:58 PM 42.2447 -71.5819 265° West 382 440 16,000  Level Boston Center
Mon 02:34:59 PM 42.2344 -71.7350 265° West 382 440 16,000  Level Boston Center
Mon 02:35:59 PM 42.2244 -71.8761 265° West 381 438 16,000  Level Boston Center
Mon 02:37:01 PM 42.2133 -72.0203 264° West 384 442 16,000 44 Level Boston Center
Mon 02:38:16 PM 42.2025 -72.1728 265° West 381 438 16,100 44 Climbing Boston Center
Mon 02:39:17 PM 42.1892 -72.3478 264° West 384 442 16,100  Level Boston Center
Mon 02:40:21 PM 42.1789 -72.4897 264° West 383 441 16,100  Level Boston Center
Mon 02:41:22 PM 42.1681 -72.6425 265° West 384 442 16,100  Level Boston Center
Mon 02:42:23 PM 42.1594 -72.7842 265° West 383 441 16,100  Level Boston Center
Mon 02:43:23 PM 42.1500 -72.9256 265° West 382 440 16,100  Level Boston Center
Mon 02:44:27 PM 42.1408 -73.0783 265° West 382 440 16,100  Level Boston Center
Mon 02:45:27 PM 42.1342 -73.1872 265° West 382 440 16,100  Level Boston Center
Mon 02:46:28 PM 42.1236 -73.3578 265° West 387 445 16,100  Level Boston Center
Mon 02:47:31 PM 42.1131 -73.5044 265° West 391 450 16,100  Level Boston Center
Mon 02:48:32 PM 42.1069 -73.6461 267° West 381 438 16,100  Level Boston Center
Mon 02:49:32 PM 42.0683 -73.8003 251° West 390 449 16,100  Level Boston Center
Mon 02:50:35 PM 41.9997 -73.9119 230° Southwest 382 440 16,100 -919 Level Boston Center
Mon 02:51:36 PM 41.9308 -74.0325 232° Southwest 378 435 14,200 -2,419 Descending Boston Center
Mon 02:52:39 PM 41.8681 -74.1381 231° Southwest 365 420 11,100 -2,032 Descending Boston Center
Mon 02:53:40 PM 41.8083 -74.2406 232° Southwest 352 405 10,000 -496 Descending Boston Center
Mon 02:54:40 PM 41.7372 -74.3411 227° Southwest 351 404 10,100 -49 Climbing Boston Center
Mon 02:55:43 PM 41.6561 -74.4072 211° Southwest 343 395 9,900 -794 Descending Boston Center
Mon 02:56:56 PM 41.5792 -74.4664 210° Southwest 301 346 8,300 -1,254 Descending Boston Center
Mon 02:57:57 PM 41.4944 -74.5289 209° Southwest 286 329 7,100 -836 Descending Boston Center
Mon 02:58:58 PM 41.4242 -74.5783 208° Southwest 287 330 6,600 -484 Descending Boston Center
Mon 03:00:01 PM 41.3533 -74.6147 201° Southwest 276 318 6,100 -303 Descending Boston Center
Mon 03:00:37 PM 41.3000 -74.6333 195° South 276 318 6,100 -882 Level New York TRACON
Mon 03:01:43 PM 41.2167 -74.6167 171° South 270 311 4,600 -1,000 Descending New York TRACON
Mon 03:02:43 PM 41.1500 -74.6000 169° South 267 307 4,000 -300 Descending New York TRACON
Mon 03:03:43 PM 41.0833 -74.5833 169° South 271 312 4,000 50 Level New York TRACON
Mon 03:04:43 PM 41.0000 -74.5667 171° South 267 307 4,100  Climbing New York TRACON
Mon 03:05:43 PM 40.9333 -74.5833 191° South 265 305 4,000  Descending New York TRACON
Mon 03:06:43 PM 40.8667 -74.5667 169° South 229 264 4,100 -450 Climbing New York TRACON
Mon 03:07:43 PM 40.8000 -74.5500 169° South 223 257 3,100 -500 Descending New York TRACON
Mon 03:08:43 PM 40.7667 -74.5000 131° Southeast 231 266 3,100  Level New York TRACON
Mon 03:09:43 PM 40.7333 -74.4333 123° Southeast 195 224 3,100  Level New York TRACON
Mon 03:10:37 PM 40.7167 -74.3667 108° East 189 217 3,100  Level New York TRACON
Mon 03:11:37 PM 40.7000 -74.3000 108° East 190 219 3,100 -286 Level New York TRACON
Mon 03:12:43 PM 40.7333 -74.2333 57° Northeast 187 215 2,500 -619 Descending New York TRACON
Mon 03:13:43 PM 40.7667 -74.1833 49° Northeast 199 229 1,800 -526 Descending New York TRACON
Mon 03:14:37 PM 40.8000 -74.1500 37° Northeast 170 196 1,500 -316 Descending New York TRACON
Mon 03:15:37 PM 40.8167 -74.0833 72° East 172 198 1,200 -300 Descending New York TRACON

Login

Don't have an account? Register now (free) for customized features, flight alerts, and more!